Time;durP1;ratioP1;P1;durP2;ratioP2;P2;SDS_P1;SDS_P2;PMS_P1;PMS_P2;Temp;Humidity;BMP_temperature;BMP_pressure;BME280_temperature;BME280_humidity;BME280_pressure;Samples;Min_cycle;Max_cycle;Signal;HPM_P1;HPM_P2
2022/08/03 00:01:11;;;;;;;17.62;7.58;;;;;;;17.01;100.00;99183.06;2134791;83;21080;-69
2022/08/03 00:04:13;;;;;;;18.85;8.35;;;;;;;16.99;100.00;99176.56;2134432;83;21174;-68
2022/08/03 00:07:14;;;;;;;16.73;6.92;;;;;;;17.05;100.00;99180.06;2134636;83;20957;-72
2022/08/03 00:10:15;;;;;;;19.45;7.85;;;;;;;17.06;100.00;99176.91;2134508;83;20991;-71
2022/08/03 00:13:18;;;;;;;14.85;4.28;;;;;;;17.01;100.00;99185.72;2134424;83;21528;-70
2022/08/03 00:16:20;;;;;;;7.97;3.67;;;;;;;16.94;100.00;99182.25;2134327;83;21116;-72
2022/08/03 00:19:21;;;;;;;14.70;6.08;;;;;;;16.76;100.00;99187.20;2134585;83;21052;-69
2022/08/03 00:22:23;;;;;;;10.80;4.90;;;;;;;16.70;100.00;99181.08;2134483;83;21053;-69
2022/08/03 00:25:24;;;;;;;13.70;5.10;;;;;;;16.70;100.00;99184.22;2134586;83;21966;-74
2022/08/03 00:28:26;;;;;;;13.40;5.03;;;;;;;16.75;100.00;99180.23;2134479;83;21345;-69
2022/08/03 00:31:27;;;;;;;17.03;5.20;;;;;;;16.74;100.00;99187.81;2134844;83;21191;-73
2022/08/03 00:34:30;;;;;;;15.63;5.50;;;;;;;16.85;100.00;99184.77;2134208;83;21410;-73
2022/08/03 00:37:31;;;;;;;16.97;6.00;;;;;;;16.90;100.00;99187.44;2136831;83;21985;-72
2022/08/03 00:40:33;;;;;;;18.70;8.13;;;;;;;16.89;100.00;99181.77;2138301;83;20949;-61
2022/08/03 00:43:34;;;;;;;24.40;9.47;;;;;;;16.92;100.00;99182.02;2138574;83;22203;-65
2022/08/03 00:46:35;;;;;;;30.00;12.50;;;;;;;16.94;100.00;99184.91;2138395;83;21682;-61
2022/08/03 00:49:37;;;;;;;21.20;8.98;;;;;;;16.98;100.00;99185.47;2138064;83;22298;-64
2022/08/03 00:52:39;;;;;;;20.37;8.13;;;;;;;17.11;100.00;99186.63;2138415;83;21064;-61
2022/08/03 00:55:40;;;;;;;17.82;6.42;;;;;;;17.34;100.00;99190.05;2138108;83;21008;-63
2022/08/03 00:58:42;;;;;;;19.87;7.35;;;;;;;17.24;100.00;99184.67;2138281;83;21036;-68
2022/08/03 01:01:43;;;;;;;18.55;7.50;;;;;;;17.20;100.00;99189.04;2137901;83;21135;-68
2022/08/03 01:04:44;;;;;;;21.42;7.70;;;;;;;17.07;100.00;99186.56;2138254;83;21498;-63
2022/08/03 01:07:46;;;;;;;19.25;8.20;;;;;;;16.99;100.00;99187.66;2144489;83;21042;-65
2022/08/03 01:10:47;;;;;;;21.17;7.17;;;;;;;16.93;100.00;99185.03;2144533;83;21533;-63
2022/08/03 01:13:49;;;;;;;20.15;8.33;;;;;;;16.82;100.00;99186.35;2144135;83;21039;-69
2022/08/03 01:16:50;;;;;;;21.68;8.35;;;;;;;16.77;100.00;99190.21;2144476;83;21009;-63
2022/08/03 01:19:52;;;;;;;24.95;10.25;;;;;;;16.76;100.00;99185.87;2144482;83;20987;-63
2022/08/03 01:22:53;;;;;;;23.80;10.60;;;;;;;16.82;100.00;99187.18;2144470;83;20984;-64
2022/08/03 01:25:55;;;;;;;23.60;8.88;;;;;;;16.85;100.00;99188.75;2144553;83;21514;-62
2022/08/03 01:28:57;;;;;;;23.92;9.75;;;;;;;16.83;100.00;99190.69;2144395;83;21039;-62
2022/08/03 01:31:58;;;;;;;24.57;9.00;;;;;;;16.95;100.00;99191.89;2144465;83;21600;-65
2022/08/03 01:35:00;;;;;;;20.82;9.15;;;;;;;17.16;100.00;99194.23;2144429;83;21019;-62
2022/08/03 01:38:01;;;;;;;23.52;9.58;;;;;;;17.12;100.00;99196.27;2144347;83;21589;-67
2022/08/03 01:41:03;;;;;;;23.50;9.30;;;;;;;17.03;100.00;99193.90;2144607;83;21070;-66
2022/08/03 01:44:04;;;;;;;25.85;9.15;;;;;;;17.11;100.00;99194.13;2144635;83;20983;-65
2022/08/03 01:47:05;;;;;;;20.92;8.43;;;;;;;17.16;100.00;99196.88;2144481;83;21046;-65
2022/08/03 01:50:07;;;;;;;23.80;9.10;;;;;;;17.14;100.00;99191.22;2144480;83;20952;-65
2022/08/03 01:53:08;;;;;;;23.10;9.58;;;;;;;17.11;100.00;99191.47;2144255;83;21470;-61
2022/08/03 01:56:10;;;;;;;19.80;8.30;;;;;;;17.15;100.00;99190.72;2144336;83;21047;-69
2022/08/03 01:59:11;;;;;;;22.35;7.78;;;;;;;17.24;100.00;99186.00;2144160;83;21071;-64
2022/08/03 02:02:13;;;;;;;21.42;7.67;;;;;;;17.19;100.00;99182.05;2144516;83;21043;-67
2022/08/03 02:05:15;;;;;;;23.45;7.25;;;;;;;17.13;100.00;99175.44;2144505;83;21473;-71
2022/08/03 02:08:16;;;;;;;20.15;7.70;;;;;;;17.21;100.00;99174.33;2144643;83;21023;-62
2022/08/03 02:11:17;;;;;;;22.22;8.48;;;;;;;17.31;100.00;99171.73;2144428;83;20991;-65
2022/08/03 02:14:19;;;;;;;22.33;7.27;;;;;;;17.27;100.00;99174.30;2144765;83;21496;-65
2022/08/03 02:17:20;;;;;;;19.07;7.53;;;;;;;17.18;100.00;99173.73;2144466;83;21630;-65
2022/08/03 02:20:22;;;;;;;20.62;8.30;;;;;;;17.17;100.00;99174.22;2144450;83;20991;-68
2022/08/03 02:23:23;;;;;;;21.90;8.78;;;;;;;17.14;100.00;99177.96;2144367;83;21074;-63
2022/08/03 02:26:25;;;;;;;22.93;9.73;;;;;;;17.18;100.00;99177.20;2144484;83;21027;-62
2022/08/03 02:29:26;;;;;;;21.37;9.10;;;;;;;17.21;100.00;99178.30;2144596;83;20995;-67
2022/08/03 02:32:27;;;;;;;23.07;9.43;;;;;;;17.27;100.00;99177.78;2144445;83;20999;-64
2022/08/03 02:35:29;;;;;;;21.15;9.28;;;;;;;17.31;100.00;99170.41;2144387;83;21532;-63
2022/08/03 02:38:30;;;;;;;23.57;9.83;;;;;;;17.30;100.00;99169.58;2136061;83;20992;-61
2022/08/03 02:41:32;;;;;;;19.65;9.00;;;;;;;17.33;100.00;99166.33;2134329;83;21789;-64
2022/08/03 02:44:33;;;;;;;20.10;9.15;;;;;;;17.34;100.00;99162.69;2134157;83;21116;-62
2022/08/03 02:47:35;;;;;;;21.65;9.60;;;;;;;17.44;100.00;99164.45;2134219;83;21128;-66
2022/08/03 02:50:36;;;;;;;22.95;10.05;;;;;;;17.58;100.00;99161.10;2134096;83;21095;-64
2022/08/03 02:53:38;;;;;;;25.02;10.23;;;;;;;17.64;100.00;99165.41;2134137;83;21111;-63
2022/08/03 02:56:39;;;;;;;24.02;10.48;;;;;;;17.60;100.00;99175.92;2134178;83;21598;-67
2022/08/03 02:59:41;;;;;;;25.25;11.05;;;;;;;17.60;100.00;99171.95;2134361;83;21072;-66
2022/08/03 03:02:42;;;;;;;24.23;11.60;;;;;;;17.59;100.00;99170.25;2134751;83;21517;-65
2022/08/03 03:05:44;;;;;;;24.15;11.63;;;;;;;17.60;100.00;99171.95;2134411;83;21236;-63
2022/08/03 03:08:45;;;;;;;23.27;11.20;;;;;;;17.64;100.00;99168.53;2134330;83;21032;-67
2022/08/03 03:11:47;;;;;;;23.05;11.38;;;;;;;17.65;100.00;99171.05;2134831;83;21031;-66
2022/08/03 03:14:49;;;;;;;23.35;10.80;;;;;;;17.73;100.00;99174.86;2134279;83;21067;-66
2022/08/03 03:17:50;;;;;;;28.12;10.98;;;;;;;17.81;100.00;99175.91;2134427;83;21115;-64
2022/08/03 03:20:52;;;;;;;25.20;11.18;;;;;;;17.84;100.00;99171.67;2134280;83;21119;-62
2022/08/03 03:23:53;;;;;;;23.10;10.57;;;;;;;17.91;100.00;99168.02;2134345;83;21042;-62
2022/08/03 03:26:55;;;;;;;22.93;11.38;;;;;;;17.92;100.00;99164.89;2134261;83;21295;-70
2022/08/03 03:29:56;;;;;;;23.45;11.20;;;;;;;17.96;100.00;99163.66;2134529;83;21530;-66
2022/08/03 03:32:58;;;;;;;24.43;11.95;;;;;;;18.02;100.00;99170.25;2134109;83;21043;-63
2022/08/03 03:35:59;;;;;;;23.95;11.93;;;;;;;18.10;100.00;99167.75;2133447;83;21591;-69
2022/08/03 03:39:01;;;;;;;26.42;12.05;;;;;;;18.17;100.00;99165.77;2143101;83;21035;-66
2022/08/03 03:42:02;;;;;;;26.62;11.68;;;;;;;18.26;100.00;99169.44;2145020;83;21487;-66
2022/08/03 03:45:04;;;;;;;25.08;10.82;;;;;;;18.32;100.00;99172.05;2144317;83;20992;-69
2022/08/03 03:48:05;;;;;;;25.72;10.32;;;;;;;18.36;100.00;99169.47;2144485;83;21051;-64
2022/08/03 03:51:07;;;;;;;24.27;10.03;;;;;;;18.43;100.00;99172.41;2144686;83;21008;-63
2022/08/03 03:54:08;;;;;;;25.50;9.30;;;;;;;18.41;100.00;99174.38;2144505;83;21038;-69
2022/08/03 03:57:10;;;;;;;22.02;9.80;;;;;;;18.45;100.00;99177.12;2144558;83;21522;-64
2022/08/03 04:00:11;;;;;;;25.23;10.08;;;;;;;18.51;100.00;99185.36;2144559;83;21058;-65
2022/08/03 04:03:13;;;;;;;23.25;10.15;;;;;;;18.52;100.00;99183.56;2144494;83;21538;-65
2022/08/03 04:12:21;;;;;;;23.70;9.95;;;;;;;18.73;100.00;99191.92;2120084;83;21020;-67
2022/08/03 04:15:22;;;;;;;24.37;11.20;;;;;;;18.82;100.00;99196.39;2144708;83;20996;-64
2022/08/03 04:18:24;;;;;;;25.12;10.90;;;;;;;18.72;100.00;99197.73;2144670;83;21003;-64
2022/08/03 04:21:25;;;;;;;22.15;9.93;;;;;;;18.83;100.00;99196.29;2144760;83;21622;-66
2022/08/03 04:24:27;;;;;;;19.90;9.10;;;;;;;18.75;100.00;99204.09;2144574;83;21038;-69
2022/08/03 04:27:28;;;;;;;21.73;9.88;;;;;;;18.54;100.00;99208.16;2144404;83;21526;-68
2022/08/03 04:30:30;;;;;;;23.52;10.43;;;;;;;18.35;100.00;99205.79;2144488;83;20990;-67
2022/08/03 04:33:31;;;;;;;20.25;9.30;;;;;;;18.36;100.00;99207.98;2144839;83;21570;-73
2022/08/03 04:36:33;;;;;;;22.82;10.40;;;;;;;18.37;100.00;99210.13;2144621;83;21011;-66
2022/08/03 04:39:35;;;;;;;22.90;10.03;;;;;;;18.33;100.00;99214.86;2144299;83;21071;-64
2022/08/03 04:42:36;;;;;;;;;;;;;;;18.37;100.00;99220.26;2147074;83;20993;-66
2022/08/03 04:45:37;;;;;;;26.80;11.73;;;;;;;18.45;100.00;99216.95;2143663;83;20489;-70
2022/08/03 04:48:39;;;;;;;29.57;11.78;;;;;;;18.40;100.00;99223.97;2143768;83;20995;-70
2022/08/03 04:51:41;;;;;;;28.30;12.58;;;;;;;18.38;100.00;99227.26;2144463;83;21503;-70
2022/08/03 04:54:43;;;;;;;32.28;12.45;;;;;;;18.34;100.00;99227.17;2143862;83;21022;-72
2022/08/03 04:57:45;;;;;;;31.90;12.55;;;;;;;18.42;100.00;99230.00;2144019;83;21027;-72
2022/08/03 05:00:50;;;;;;;28.27;12.40;;;;;;;18.55;100.00;99218.28;2144394;83;21476;-71
2022/08/03 05:03:50;;;;;;;31.60;13.38;;;;;;;18.82;100.00;99224.30;2120272;83;21026;-70
2022/08/03 05:06:51;;;;;;;;;;;;;;;19.28;100.00;99228.19;2146844;83;21114;-69
2022/08/03 05:09:53;;;;;;;28.98;13.75;;;;;;;19.64;100.00;99224.92;2144728;83;20501;-71
2022/08/03 05:12:54;;;;;;;27.27;13.60;;;;;;;19.85;100.00;99224.29;2144475;83;21019;-69
2022/08/03 05:15:56;;;;;;;31.75;13.78;;;;;;;20.13;100.00;99220.85;2144661;83;21506;-71
2022/08/03 05:18:57;;;;;;;28.55;12.65;;;;;;;20.35;100.00;99219.66;2144460;83;20964;-72
2022/08/03 05:21:59;;;;;;;27.15;13.18;;;;;;;20.37;100.00;99223.87;2144475;83;21055;-71
2022/08/03 05:25:00;;;;;;;24.72;12.88;;;;;;;20.51;100.00;99225.19;2144521;83;21066;-67
2022/08/03 05:28:02;;;;;;;25.20;12.80;;;;;;;20.77;100.00;99225.86;2144409;83;21015;-62
2022/08/03 05:31:04;;;;;;;26.07;12.18;;;;;;;21.11;100.00;99226.05;2144645;83;21047;-63
2022/08/03 05:34:05;;;;;;;26.17;11.63;;;;;;;21.45;100.00;99229.88;2144282;83;21038;-68
2022/08/03 05:37:07;;;;;;;23.98;10.95;;;;;;;22.06;100.00;99225.49;2144441;83;21019;-64
2022/08/03 05:40:08;;;;;;;23.38;12.28;;;;;;;22.06;100.00;99225.49;2144490;83;20983;-61
2022/08/03 05:43:10;;;;;;;23.77;11.45;;;;;;;22.54;100.00;99226.42;2144441;83;20999;-69
2022/08/03 05:46:11;;;;;;;23.77;11.40;;;;;;;22.97;100.00;99229.91;2144580;83;21038;-64
2022/08/03 05:49:12;;;;;;;24.52;10.82;;;;;;;23.27;100.00;99223.13;2144457;83;21008;-66
2022/08/03 05:52:14;;;;;;;23.98;9.58;;;;;;;23.98;100.00;99225.33;2144574;83;21042;-62
2022/08/03 05:55:15;;;;;;;25.08;10.70;;;;;;;23.98;100.00;99225.33;2144388;83;21018;-62
2022/08/03 05:58:17;;;;;;;23.87;10.53;;;;;;;24.14;100.00;99224.45;2144549;83;21007;-66
2022/08/03 06:01:20;;;;;;;22.05;8.85;;;;;;;24.17;100.00;99231.63;2144102;83;21102;-65
2022/08/03 06:04:22;;;;;;;21.33;9.68;;;;;;;24.32;100.00;99227.75;2144271;83;21569;-64
2022/08/03 06:07:24;;;;;;;19.17;8.63;;;;;;;24.48;100.00;99230.02;2144266;83;21550;-65
2022/08/03 06:10:26;;;;;;;22.48;9.23;;;;;;;24.62;100.00;99225.80;2144421;83;21035;-65
2022/08/03 06:13:27;;;;;;;18.95;7.97;;;;;;;24.82;100.00;99226.21;2144413;83;21002;-69
2022/08/03 06:16:30;;;;;;;19.92;7.42;;;;;;;25.06;100.00;99232.77;2144374;83;21043;-70
2022/08/03 06:19:31;;;;;;;19.02;7.53;;;;;;;25.30;100.00;99229.60;2144302;83;21050;-63
2022/08/03 06:22:33;;;;;;;20.17;8.23;;;;;;;25.48;100.00;99227.97;2144557;83;20999;-64
2022/08/03 06:25:34;;;;;;;19.85;7.75;;;;;;;25.61;100.00;99232.73;2144394;83;21035;-63
2022/08/03 06:28:36;;;;;;;18.15;7.17;;;;;;;25.47;100.00;99230.32;2144514;83;21082;-64
2022/08/03 06:31:37;;;;;;;19.27;7.40;;;;;;;25.46;100.00;99230.02;2144553;83;21470;-65
2022/08/03 06:34:39;;;;;;;20.08;8.10;;;;;;;25.47;100.00;99233.01;2144351;83;21027;-64
2022/08/03 06:37:40;;;;;;;20.00;7.42;;;;;;;25.75;100.00;99236.48;2144329;83;21538;-63
2022/08/03 06:40:42;;;;;;;19.52;7.70;;;;;;;26.05;100.00;99229.84;2144434;83;21058;-60
2022/08/03 06:43:43;;;;;;;20.68;8.10;;;;;;;26.41;100.00;99235.83;2144373;83;21003;-62
2022/08/03 06:46:44;;;;;;;19.27;7.22;;;;;;;26.74;100.00;99229.55;2144455;83;21031;-65
2022/08/03 06:49:46;;;;;;;18.52;7.30;;;;;;;26.56;100.00;99233.12;2144399;83;21063;-61
2022/08/03 06:52:48;;;;;;;18.15;7.00;;;;;;;26.64;100.00;99234.37;2144414;83;20999;-61
2022/08/03 06:55:49;;;;;;;17.45;6.65;;;;;;;26.86;100.00;99228.55;2144297;83;21096;-61
2022/08/03 06:58:51;;;;;;;20.80;7.17;;;;;;;27.01;100.00;99232.56;2144657;83;21486;-60
2022/08/03 07:01:52;;;;;;;17.87;6.67;;;;;;;27.35;100.00;99230.23;2143908;83;21111;-66
2022/08/03 07:04:54;;;;;;;20.35;7.10;;;;;;;27.70;100.00;99230.31;2144629;83;21613;-62
2022/08/03 07:07:56;;;;;;;17.23;7.00;;;;;;;27.83;100.00;99235.30;2144529;83;21007;-61
2022/08/03 07:10:57;;;;;;;19.55;7.67;;;;;;;28.05;100.00;99234.45;2144639;83;21517;-63
2022/08/03 07:13:59;;;;;;;;;;;;;;;28.00;100.00;99225.59;2146946;83;21011;-61
2022/08/03 07:17:01;;;;;;;20.30;7.17;;;;;;;27.79;100.00;99238.06;2144612;83;20474;-63
2022/08/03 07:20:02;;;;;;;17.67;7.00;;;;;;;27.84;100.00;99234.78;2144310;83;21069;-62
2022/08/03 07:23:04;;;;;;;19.45;7.60;;;;;;;28.06;100.00;99230.70;2144311;83;21510;-62
2022/08/03 07:26:05;;;;;;;18.77;7.47;;;;;;;28.57;100.00;99229.02;2144529;83;21031;-60
2022/08/03 07:29:07;;;;;;;;;;;;;;;29.14;100.00;99227.48;2146858;83;21044;-68
2022/08/03 07:32:08;;;;;;;18.57;7.80;;;;;;;29.54;100.00;99228.91;2144422;83;20148;-62
2022/08/03 07:35:10;;;;;;;;;;;;;;;29.80;100.00;99231.30;2146797;83;21007;-61
2022/08/03 07:38:11;;;;;;;19.90;7.05;;;;;;;29.86;100.00;99226.44;2144371;83;20131;-63
2022/08/03 07:41:12;;;;;;;;;;;;;;;29.38;100.00;99231.51;2146814;83;21502;-67
2022/08/03 07:44:14;;;;;;;19.50;7.42;;;;;;;28.99;100.00;99228.98;2144531;83;20144;-64
2022/08/03 07:47:16;;;;;;;19.92;7.80;;;;;;;28.37;100.00;99231.62;2144553;83;20971;-61
2022/08/03 07:50:17;;;;;;;;;;;;;;;28.15;100.00;99235.75;2146972;83;21003;-64
2022/08/03 07:53:19;;;;;;;16.50;6.65;;;;;;;28.09;100.00;99234.38;2144682;83;20434;-63
2022/08/03 07:56:21;;;;;;;22.00;7.75;;;;;;;28.14;100.00;99234.60;2144683;83;20998;-62
2022/08/03 07:59:23;;;;;;;17.00;7.58;;;;;;;28.42;100.00;99236.44;2144224;83;21533;-61
2022/08/03 08:02:24;;;;;;;;;;;;;;;28.73;100.00;99244.05;2147011;83;20956;-65
2022/08/03 08:05:26;;;;;;;18.32;7.42;;;;;;;29.20;100.00;99242.86;2144674;83;20128;-63
2022/08/03 08:08:28;;;;;;;21.80;8.13;;;;;;;29.77;100.00;99238.45;2144436;83;20956;-63
2022/08/03 08:11:29;;;;;;;;;;;;;;;30.37;100.00;99237.88;2147122;83;21036;-64
2022/08/03 08:14:31;;;;;;;;;;;;;;;30.85;100.00;99239.91;2147056;83;20123;-64
2022/08/03 08:17:33;;;;;;;16.65;6.72;;;;;;;30.72;100.00;99242.16;2144614;83;20150;-66
2022/08/03 08:20:34;;;;;;;;;;;;;;;30.09;100.00;99244.09;2146731;83;21023;-63
2022/08/03 08:23:36;;;;;;;;;;;;;;;29.32;100.00;99238.56;2146844;83;20151;-64
2022/08/03 08:26:37;;;;;;;19.87;6.97;;;;;;;28.77;100.00;99245.85;2142803;83;20163;-64
2022/08/03 08:29:39;;;;;;;17.85;7.05;;;;;;;28.55;100.00;99243.23;2143941;83;21007;-64
2022/08/03 08:32:40;;;;;;;20.85;7.45;;;;;;;28.42;100.00;99245.36;2144391;83;21011;-61
2022/08/03 08:35:42;;;;;;;;;;;;;;;28.39;100.00;99243.55;2147177;83;21047;-65
2022/08/03 08:38:45;;;;;;;22.62;8.00;;;;;;;28.24;100.00;99247.21;2118679;83;20144;-63
2022/08/03 08:41:46;;;;;;;;;;;;;;;28.32;100.00;99247.06;2142381;83;22181;-64
2022/08/03 08:44:48;;;;;;;17.30;7.50;;;;;;;28.15;100.00;99249.23;2138901;83;20174;-67
2022/08/03 08:47:50;;;;;;;17.40;7.42;;;;;;;27.85;100.00;99252.63;2139395;83;21027;-64
2022/08/03 08:50:51;;;;;;;19.70;7.80;;;;;;;27.95;100.00;99249.06;2140463;83;21019;-62
2022/08/03 08:53:53;;;;;;;;;;;;;;;28.44;100.00;99249.20;2143675;83;21419;-60
2022/08/03 08:56:54;;;;;;;;;;;;;;;28.56;100.00;99249.45;2143227;83;20143;-63
2022/08/03 08:59:56;;;;;;;16.65;7.12;;;;;;;28.84;100.00;99255.63;2141217;83;20185;-65
2022/08/03 09:02:57;;;;;;;19.25;7.30;;;;;;;28.99;100.00;99247.39;2140903;83;21019;-61
2022/08/03 09:05:59;;;;;;;;;;;;;;;29.02;99.92;99248.83;2143790;83;21535;-62
2022/08/03 09:09:01;;;;;;;19.05;7.03;;;;;;;29.02;100.00;99248.33;2140584;83;20199;-65
2022/08/03 09:12:02;;;;;;;17.42;6.60;;;;;;;29.46;100.00;99249.38;2140963;83;21016;-66
2022/08/03 09:15:04;;;;;;;18.95;6.90;;;;;;;29.87;99.72;99244.33;2140780;83;21054;-64
2022/08/03 09:18:05;;;;;;;17.55;6.78;;;;;;;29.92;98.75;99241.81;2141028;83;21545;-64
2022/08/03 09:21:07;;;;;;;17.30;6.80;;;;;;;29.82;100.00;99248.95;2140806;83;20968;-61
2022/08/03 09:24:08;;;;;;;;;;;;;;;29.80;100.00;99248.34;2143321;83;21573;-64
2022/08/03 09:27:11;;;;;;;13.20;5.83;;;;;;;30.14;100.00;99251.88;2140810;83;20140;-62
2022/08/03 09:30:12;;;;;;;19.02;6.67;;;;;;;30.15;96.55;99245.94;2141059;83;21106;-63
2022/08/03 09:33:15;;;;;;;17.57;6.62;;;;;;;29.94;95.38;99242.95;2140755;83;21028;-63
2022/08/03 09:36:17;;;;;;;16.20;6.42;;;;;;;29.87;92.96;99246.50;2140807;83;21051;-66
2022/08/03 09:39:18;;;;;;;18.82;6.37;;;;;;;30.33;94.96;99246.61;2137798;83;21598;-64
2022/08/03 09:42:22;;;;;;;15.23;6.10;;;;;;;30.22;89.40;99244.05;2134252;83;21075;-62
2022/08/03 09:45:23;;;;;;;17.82;6.45;;;;;;;29.22;89.63;99240.77;2106556;83;21007;-64
2022/08/03 09:48:24;;;;;;;18.00;6.28;;;;;;;28.72;95.41;99245.61;2133770;83;21032;-65
2022/08/03 09:51:26;;;;;;;18.12;6.25;;;;;;;28.52;98.57;99244.99;2134231;83;20999;-65
2022/08/03 09:54:27;;;;;;;;;;;;;;;28.77;96.04;99243.98;2136656;83;21064;-68
2022/08/03 09:57:30;;;;;;;18.80;6.85;;;;;;;28.95;95.65;99236.68;2134385;83;20196;-71
2022/08/03 10:00:31;;;;;;;15.28;5.15;;;;;;;29.19;97.32;99232.59;2134476;83;21562;-70
2022/08/03 10:03:33;;;;;;;14.18;5.20;;;;;;;29.91;95.24;99234.73;2134039;83;21161;-70
2022/08/03 10:06:35;;;;;;;15.98;5.47;;;;;;;30.54;92.62;99230.16;2134385;83;21576;-71
2022/08/03 10:09:36;;;;;;;17.95;5.28;;;;;;;31.08;83.71;99226.67;2134227;83;21080;-69
2022/08/03 10:12:38;;;;;;;15.48;5.42;;;;;;;31.44;89.66;99229.78;2134072;83;21051;-66
2022/08/03 10:15:39;;;;;;;15.10;5.45;;;;;;;31.89;88.82;99225.55;2134168;83;21084;-66
2022/08/03 10:18:41;;;;;;;19.45;5.70;;;;;;;32.02;84.86;99237.34;2134099;83;21092;-70
2022/08/03 10:21:42;;;;;;;17.98;5.70;;;;;;;31.99;75.22;99232.36;2134227;83;21654;-70
2022/08/03 10:24:44;;;;;;;15.18;5.62;;;;;;;31.71;73.56;99230.96;2133837;83;21016;-61
2022/08/03 10:27:46;;;;;;;13.90;5.35;;;;;;;31.78;77.40;99231.20;2134264;83;21088;-63
2022/08/03 10:30:48;;;;;;;16.45;5.87;;;;;;;32.20;77.86;99229.25;2133994;83;21044;-66
2022/08/03 10:33:49;;;;;;;14.43;5.65;;;;;;;31.78;71.67;99227.12;2134160;83;21167;-62
2022/08/03 10:36:52;;;;;;;14.18;5.25;;;;;;;31.41;70.92;99226.98;2133861;83;21128;-67
2022/08/03 10:39:54;;;;;;;18.48;5.70;;;;;;;31.39;70.09;99223.67;2134013;83;21152;-67
2022/08/03 10:42:55;;;;;;;16.55;5.62;;;;;;;30.99;69.46;99231.17;2134037;83;21044;-68
2022/08/03 10:45:57;;;;;;;13.50;5.40;;;;;;;30.49;70.23;99231.84;2134022;83;21560;-62
2022/08/03 10:48:58;;;;;;;13.22;5.22;;;;;;;30.38;71.45;99232.76;2134191;83;21061;-67
2022/08/03 10:52:00;;;;;;;14.55;5.40;;;;;;;30.80;73.69;99228.36;2134095;83;21072;-65
2022/08/03 10:58:04;;;;;;;15.83;5.83;;;;;;;31.94;69.76;99227.08;2106595;83;21035;-70
2022/08/03 11:01:06;;;;;;;15.05;5.22;;;;;;;31.71;68.14;99210.63;2134174;83;21096;-63
2022/08/03 11:04:07;;;;;;;17.40;5.20;;;;;;;31.34;68.87;99203.70;2133965;83;21080;-68
2022/08/03 11:07:09;;;;;;;13.18;5.47;;;;;;;31.15;70.79;99206.33;2134224;83;21093;-67
2022/08/03 11:10:10;;;;;;;15.10;5.17;;;;;;;31.20;69.73;99196.19;2134450;83;21558;-67
2022/08/03 11:13:12;;;;;;;12.05;4.78;;;;;;;31.47;68.00;99197.35;2134134;83;21055;-67
2022/08/03 11:16:13;;;;;;;14.43;5.10;;;;;;;31.99;70.60;99195.75;2134172;83;21083;-66
2022/08/03 11:19:15;;;;;;;13.88;4.97;;;;;;;32.22;68.21;99191.86;2134478;83;20989;-65
2022/08/03 11:22:17;;;;;;;11.80;4.87;;;;;;;32.21;64.54;99194.80;2134363;83;21055;-68
2022/08/03 11:25:18;;;;;;;12.05;4.92;;;;;;;32.06;63.08;99194.61;2134576;83;21003;-69
2022/08/03 11:28:20;;;;;;;14.45;5.50;;;;;;;31.64;62.58;99188.98;2134386;83;21107;-64
2022/08/03 11:31:21;;;;;;;14.73;5.22;;;;;;;31.58;58.00;99188.53;2134270;83;21136;-68
2022/08/03 11:34:23;;;;;;;14.07;4.85;;;;;;;31.91;58.28;99187.36;2134226;83;21112;-64
2022/08/03 11:37:24;;;;;;;15.25;5.37;;;;;;;32.08;58.50;99185.73;2134431;83;21997;-67
2022/08/03 11:40:26;;;;;;;13.88;5.05;;;;;;;32.38;57.51;99182.81;2140625;83;21066;-65
2022/08/03 11:43:27;;;;;;;14.18;4.80;;;;;;;32.42;55.94;99184.84;2144439;83;20998;-68
2022/08/03 11:46:30;;;;;;;14.00;5.45;;;;;;;32.70;57.24;99183.99;2144133;83;21044;-64
2022/08/03 11:49:31;;;;;;;14.45;5.40;;;;;;;33.11;58.84;99185.91;2144380;83;21319;-64
2022/08/03 11:52:33;;;;;;;13.28;5.03;;;;;;;33.51;60.60;99187.20;2144633;83;21055;-63
2022/08/03 11:55:34;;;;;;;14.50;4.80;;;;;;;33.80;59.92;99181.37;2144333;83;21047;-65
2022/08/03 11:58:36;;;;;;;12.07;4.80;;;;;;;34.09;58.78;99181.45;2144386;83;21470;-67
2022/08/03 12:01:38;;;;;;;11.70;4.97;;;;;;;34.25;54.33;99180.42;2144087;83;21028;-63
2022/08/03 12:04:40;;;;;;;10.10;4.35;;;;;;;34.32;55.21;99177.06;2144528;83;21007;-61
2022/08/03 12:07:41;;;;;;;12.60;4.45;;;;;;;34.38;53.37;99179.36;2144453;83;21022;-66
2022/08/03 12:10:43;;;;;;;13.88;4.97;;;;;;;34.52;54.27;99180.22;2144537;83;21015;-66
2022/08/03 12:13:45;;;;;;;12.98;4.50;;;;;;;34.81;50.97;99179.40;2144405;83;20968;-69
2022/08/03 12:16:47;;;;;;;13.20;4.60;;;;;;;34.92;47.80;99182.61;2144532;83;21055;-67
2022/08/03 12:19:49;;;;;;;12.60;4.78;;;;;;;34.78;47.42;99172.50;2144625;83;21566;-65
2022/08/03 12:22:51;;;;;;;13.65;5.05;;;;;;;34.33;43.70;99176.00;2144374;83;21047;-67
2022/08/03 12:25:52;;;;;;;13.58;4.53;;;;;;;33.60;42.67;99170.81;2144413;83;21031;-65
2022/08/03 12:28:54;;;;;;;13.85;4.62;;;;;;;33.45;41.77;99160.96;2144295;83;21023;-67
2022/08/03 12:31:55;;;;;;;13.53;4.75;;;;;;;33.60;41.44;99153.69;2144407;83;21007;-65
2022/08/03 12:34:59;;;;;;;10.45;4.30;;;;;;;33.77;42.38;99149.75;2144469;83;21497;-64
2022/08/03 12:38:01;;;;;;;15.15;4.85;;;;;;;34.15;42.53;99152.45;2120330;83;20968;-65
2022/08/03 12:41:03;;;;;;;11.85;4.70;;;;;;;34.39;41.65;99152.44;2144551;83;21562;-68
2022/08/03 12:44:04;;;;;;;14.90;4.70;;;;;;;34.22;40.93;99147.70;2144352;83;21022;-66
2022/08/03 12:47:09;;;;;;;10.80;4.53;;;;;;;33.98;41.83;99140.97;2144395;83;21007;-63
2022/08/03 12:50:09;;;;;;;11.90;4.60;;;;;;;34.34;44.18;99132.75;2120203;83;20980;-62
2022/08/03 12:53:11;;;;;;;10.70;4.60;;;;;;;34.70;43.76;99138.33;2144441;83;20999;-66
2022/08/03 12:56:12;;;;;;;12.55;4.42;;;;;;;34.75;39.28;99137.59;2144040;83;21609;-66
2022/08/03 12:59:14;;;;;;;13.60;4.80;;;;;;;34.65;40.07;99140.13;2144491;83;20968;-63
2022/08/03 13:02:16;;;;;;;10.53;4.47;;;;;;;34.85;43.70;99133.71;2144394;83;20999;-62
2022/08/03 13:05:17;;;;;;;12.98;4.90;;;;;;;35.21;39.19;99132.13;2144498;83;21004;-65
2022/08/03 13:08:19;;;;;;;9.80;4.70;;;;;;;34.70;41.17;99132.06;2144387;83;20998;-68
2022/08/03 13:11:20;;;;;;;13.25;4.72;;;;;;;34.13;40.56;99130.93;2144305;83;21055;-68
2022/08/03 13:14:22;;;;;;;14.45;5.10;;;;;;;33.63;42.08;99127.38;2144308;83;20987;-62
2022/08/03 13:17:23;;;;;;;13.83;4.80;;;;;;;33.61;42.78;99130.33;2144313;83;21022;-70
2022/08/03 13:20:25;;;;;;;13.50;4.67;;;;;;;33.93;41.19;99130.52;2144341;83;21052;-65
2022/08/03 13:23:26;;;;;;;13.05;4.90;;;;;;;34.33;42.96;99126.47;2144298;83;21569;-65
2022/08/03 13:26:28;;;;;;;14.35;4.92;;;;;;;34.79;41.56;99127.89;2143985;83;21649;-67
2022/08/03 13:29:29;;;;;;;11.57;4.55;;;;;;;34.37;39.78;99129.55;2144574;83;21003;-68
2022/08/03 13:32:31;;;;;;;14.20;4.87;;;;;;;33.96;41.92;99124.05;2144330;83;21002;-67
2022/08/03 13:35:32;;;;;;;13.53;4.67;;;;;;;33.89;40.53;99125.25;2144474;83;21034;-66
2022/08/03 13:38:34;;;;;;;18.52;4.80;;;;;;;33.86;41.07;99125.19;2144352;83;20972;-65
2022/08/03 13:41:35;;;;;;;12.35;4.90;;;;;;;33.96;38.85;99123.23;2135400;83;21554;-65
2022/08/03 13:44:37;;;;;;;12.40;4.60;;;;;;;33.84;38.88;99120.53;2134001;83;21146;-65
2022/08/03 13:47:39;;;;;;;13.05;4.60;;;;;;;33.52;41.18;99127.69;2134051;83;21088;-69
2022/08/03 13:50:40;;;;;;;10.63;4.42;;;;;;;33.46;41.01;99122.66;2134290;83;21091;-69
2022/08/03 13:53:42;;;;;;;15.58;5.10;;;;;;;33.60;40.96;99121.06;2134076;83;21075;-67
2022/08/03 13:56:48;;;;;;;14.70;5.05;;;;;;;33.58;40.87;99124.56;2134307;83;21008;-66
2022/08/03 13:59:48;;;;;;;13.65;5.17;;;;;;;33.81;40.46;99120.47;2106526;83;21028;-66
2022/08/03 14:02:50;;;;;;;12.98;5.00;;;;;;;34.46;40.93;99119.09;2134323;83;21067;-65
2022/08/03 14:05:51;;;;;;;12.98;4.90;;;;;;;34.62;38.70;99119.66;2134171;83;21119;-71
2022/08/03 14:08:52;;;;;;;12.73;4.83;;;;;;;34.53;39.11;99116.50;2134451;83;21550;-71
2022/08/03 14:11:54;;;;;;;12.03;4.87;;;;;;;34.24;37.66;99112.93;2134232;83;21091;-63